To NAV CANADA Home Page Login to a new session Search on AWWS site Feedback and Comments Disclaimer Vers la page française équivalente Tips FAQ What's new on the site To the Forecasts and Observations / NOTAM section To "File a Flight Plan" website Publications and other links Update of the User's profile FIC Telephone Numbers My Weather Data Folder Route Weather Data Regional Weather Data Local Weather Data To the Forecasts and Observations / NOTAM section
Request Generated 08/22/2017 at 03:33:20 UTC . Weather information available at that time is displayed.

METAR/TAF

LA RONGE (BARBER FIELD)/SK    

METAR CYVC 220300Z 27004KT 15SM FEW055 FEW250 15/06 A3001 RMK SC1CI1
SLP171 DENSITY ALT 1400FT=
METAR CYVC 220200Z 28007KT 15SM FEW055 SCT250 17/05 A3000 RMK SC2CI1
SLP168 DENSITY ALT 1800FT=
METAR CYVC 220100Z 29009KT 15SM FEW055 SCT250 20/05 A2999 RMK CU2CI1
SLP164 DENSITY ALT 2100FT=

TAF CYVC 220038Z 2201/2213 29010G20KT P6SM FEW070
BECMG 2203/2205 25005KT
RMK NXT FCST BY 220700Z=
Your time UTC time
Weather data provided by Environment Canada and NAV CANADA